sensor_id;sensor_type;location;lat;lon;timestamp;pressure;altitude;pressure_sealevel;temperature;humidity
44001;BME280;29660;42.892;24.710;2023-02-25T00:01:48;96118.00;;;2.78;100.00
44001;BME280;29660;42.892;24.710;2023-02-25T00:07:24;96312.59;;;4.10;100.00
44001;BME280;29660;42.892;24.710;2023-02-25T00:12:49;96324.69;;;3.91;100.00
44001;BME280;29660;42.892;24.710;2023-02-25T00:18:11;96007.44;;;2.00;100.00
44001;BME280;29660;42.892;24.710;2023-02-25T00:23:34;96331.56;;;4.12;100.00
44001;BME280;29660;42.892;24.710;2023-02-25T00:28:56;96302.25;;;3.88;100.00
44001;BME280;29660;42.892;24.710;2023-02-25T00:34:18;96179.69;;;2.98;100.00
44001;BME280;29660;42.892;24.710;2023-02-25T00:39:41;96230.97;;;3.42;100.00
44001;BME280;29660;42.892;24.710;2023-02-25T00:45:03;96068.91;;;2.36;100.00
44001;BME280;29660;42.892;24.710;2023-02-25T00:50:25;96320.97;;;3.82;100.00
44001;BME280;29660;42.892;24.710;2023-02-25T00:55:57;96276.09;;;3.66;100.00
44001;BME280;29660;42.892;24.710;2023-02-25T01:01:26;96265.00;;;3.64;100.00
44001;BME280;29660;42.892;24.710;2023-02-25T01:06:48;96135.41;;;2.89;100.00
44001;BME280;29660;42.892;24.710;2023-02-25T01:12:10;96261.31;;;3.65;100.00
44001;BME280;29660;42.892;24.710;2023-02-25T01:17:33;96204.28;;;3.24;100.00
44001;BME280;29660;42.892;24.710;2023-02-25T01:22:55;96249.69;;;3.56;100.00
44001;BME280;29660;42.892;24.710;2023-02-25T01:28:18;96263.38;;;3.48;100.00
44001;BME280;29660;42.892;24.710;2023-02-25T01:33:40;95959.66;;;1.61;100.00
44001;BME280;29660;42.892;24.710;2023-02-25T01:39:03;96003.16;;;1.84;100.00
44001;BME280;29660;42.892;24.710;2023-02-25T01:44:35;96045.88;;;2.11;100.00
44001;BME280;29660;42.892;24.710;2023-02-25T01:49:58;96178.38;;;2.95;100.00
44001;BME280;29660;42.892;24.710;2023-02-25T01:55:20;96187.88;;;3.06;100.00
44001;BME280;29660;42.892;24.710;2023-02-25T02:00:43;96201.09;;;3.11;100.00
44001;BME280;29660;42.892;24.710;2023-02-25T02:06:24;96222.72;;;3.24;100.00
44001;BME280;29660;42.892;24.710;2023-02-25T02:11:48;95976.84;;;1.74;100.00
44001;BME280;29660;42.892;24.710;2023-02-25T02:17:23;96232.72;;;3.16;100.00
44001;BME280;29660;42.892;24.710;2023-02-25T02:28:37;96209.28;;;3.20;100.00
44001;BME280;29660;42.892;24.710;2023-02-25T02:45:54;96213.69;;;2.99;100.00
44001;BME280;29660;42.892;24.710;2023-02-25T02:51:43;96198.41;;;3.01;100.00
44001;BME280;29660;42.892;24.710;2023-02-25T02:57:08;96193.13;;;2.96;100.00
44001;BME280;29660;42.892;24.710;2023-02-25T03:02:35;96108.41;;;2.46;100.00
44001;BME280;29660;42.892;24.710;2023-02-25T03:08:19;95907.47;;;1.22;100.00
44001;BME280;29660;42.892;24.710;2023-02-25T03:13:43;96185.72;;;2.93;100.00
44001;BME280;29660;42.892;24.710;2023-02-25T03:19:15;96203.66;;;2.96;100.00
44001;BME280;29660;42.892;24.710;2023-02-25T03:24:49;95867.03;;;0.86;100.00
44001;BME280;29660;42.892;24.710;2023-02-25T03:35:58;96061.75;;;2.27;100.00
44001;BME280;29660;42.892;24.710;2023-02-25T03:41:25;95878.69;;;1.00;100.00
44001;BME280;29660;42.892;24.710;2023-02-25T03:46:50;96165.16;;;2.85;100.00
44001;BME280;29660;42.892;24.710;2023-02-25T03:52:16;95862.81;;;0.80;100.00
44001;BME280;29660;42.892;24.710;2023-02-25T03:57:41;95863.91;;;0.84;100.00
44001;BME280;29660;42.892;24.710;2023-02-25T04:03:04;95977.28;;;1.60;100.00
44001;BME280;29660;42.892;24.710;2023-02-25T04:08:27;96133.25;;;2.71;100.00
44001;BME280;29660;42.892;24.710;2023-02-25T04:13:49;95857.19;;;1.03;100.00
44001;BME280;29660;42.892;24.710;2023-02-25T04:19:12;96154.34;;;2.81;100.00
44001;BME280;29660;42.892;24.710;2023-02-25T04:24:35;95855.63;;;1.07;100.00
44001;BME280;29660;42.892;24.710;2023-02-25T04:29:57;96117.72;;;2.75;100.00
44001;BME280;29660;42.892;24.710;2023-02-25T04:35:20;96128.81;;;2.87;100.00
44001;BME280;29660;42.892;24.710;2023-02-25T04:40:42;95844.84;;;1.04;100.00
44001;BME280;29660;42.892;24.710;2023-02-25T04:46:04;96118.03;;;2.88;100.00
44001;BME280;29660;42.892;24.710;2023-02-25T04:51:26;95852.50;;;1.10;100.00
44001;BME280;29660;42.892;24.710;2023-02-25T04:56:49;96051.50;;;2.35;100.00
44001;BME280;29660;42.892;24.710;2023-02-25T05:02:11;96063.38;;;2.33;100.00
44001;BME280;29660;42.892;24.710;2023-02-25T05:07:33;96015.59;;;1.99;100.00
44001;BME280;29660;42.892;24.710;2023-02-25T05:12:55;95812.13;;;0.74;100.00
44001;BME280;29660;42.892;24.710;2023-02-25T05:18:17;95808.50;;;0.85;100.00
44001;BME280;29660;42.892;24.710;2023-02-25T05:23:41;95909.00;;;1.70;100.00
44001;BME280;29660;42.892;24.710;2023-02-25T05:29:03;95814.72;;;1.16;100.00
44001;BME280;29660;42.892;24.710;2023-02-25T05:34:25;95803.72;;;1.25;100.00
44001;BME280;29660;42.892;24.710;2023-02-25T05:39:47;95881.16;;;1.69;100.00
44001;BME280;29660;42.892;24.710;2023-02-25T05:45:11;96072.78;;;3.07;100.00
44001;BME280;29660;42.892;24.710;2023-02-25T05:50:33;95815.91;;;1.51;100.00
44001;BME280;29660;42.892;24.710;2023-02-25T05:56:04;95828.88;;;1.73;100.00
44001;BME280;29660;42.892;24.710;2023-02-25T06:01:27;96123.69;;;3.79;100.00
44001;BME280;29660;42.892;24.710;2023-02-25T06:06:50;95840.75;;;2.32;100.00
44001;BME280;29660;42.892;24.710;2023-02-25T06:12:12;96058.56;;;3.89;100.00
44001;BME280;29660;42.892;24.710;2023-02-25T06:17:34;96072.19;;;4.22;100.00
44001;BME280;29660;42.892;24.710;2023-02-25T06:22:57;95816.53;;;2.81;100.00
44001;BME280;29660;42.892;24.710;2023-02-25T06:28:19;96084.34;;;4.88;100.00
44001;BME280;29660;42.892;24.710;2023-02-25T06:33:41;96058.63;;;4.99;100.00
44001;BME280;29660;42.892;24.710;2023-02-25T06:39:03;96047.13;;;5.18;100.00
44001;BME280;29660;42.892;24.710;2023-02-25T06:44:25;95657.44;;;2.97;100.00
44001;BME280;29660;42.892;24.710;2023-02-25T06:49:51;95794.97;;;4.03;100.00
44001;BME280;29660;42.892;24.710;2023-02-25T06:55:13;95819.16;;;4.50;100.00
44001;BME280;29660;42.892;24.710;2023-02-25T07:00:35;95761.94;;;4.40;100.00
44001;BME280;29660;42.892;24.710;2023-02-25T07:05:58;95904.47;;;5.66;100.00
44001;BME280;29660;42.892;24.710;2023-02-25T07:11:26;95871.47;;;5.83;100.00
44001;BME280;29660;42.892;24.710;2023-02-25T07:16:50;96047.06;;;7.58;100.00
44001;BME280;29660;42.892;24.710;2023-02-25T07:22:14;95774.50;;;6.62;93.59
44001;BME280;29660;42.892;24.710;2023-02-25T07:27:41;95803.81;;;7.68;84.15
44001;BME280;29660;42.892;24.710;2023-02-25T07:33:05;95769.63;;;8.25;73.90
44001;BME280;29660;42.892;24.710;2023-02-25T07:38:27;95756.00;;;8.63;75.73
44001;BME280;29660;42.892;24.710;2023-02-25T07:43:49;95766.44;;;9.21;76.73
44001;BME280;29660;42.892;24.710;2023-02-25T07:49:13;95865.72;;;10.45;71.32
44001;BME280;29660;42.892;24.710;2023-02-25T07:54:35;95751.09;;;10.01;68.97
44001;BME280;29660;42.892;24.710;2023-02-25T07:59:57;95961.91;;;11.91;63.63
44001;BME280;29660;42.892;24.710;2023-02-25T08:05:19;95787.31;;;11.19;59.06
44001;BME280;29660;42.892;24.710;2023-02-25T08:10:43;95536.31;;;9.97;54.02
44001;BME280;29660;42.892;24.710;2023-02-25T08:16:07;95972.06;;;13.07;51.51
44001;BME280;29660;42.892;24.710;2023-02-25T08:21:29;95746.59;;;11.90;58.06
44001;BME280;29660;42.892;24.710;2023-02-25T08:26:51;95965.31;;;13.76;51.00
44001;BME280;29660;42.892;24.710;2023-02-25T08:32:13;95825.03;;;13.35;51.71
44001;BME280;29660;42.892;24.710;2023-02-25T08:37:35;95903.66;;;14.25;47.26
44001;BME280;29660;42.892;24.710;2023-02-25T08:42:58;95934.47;;;14.80;44.02
44001;BME280;29660;42.892;24.710;2023-02-25T08:48:20;95720.13;;;13.70;43.82
44001;BME280;29660;42.892;24.710;2023-02-25T08:53:42;95883.88;;;14.94;45.47
44001;BME280;29660;42.892;24.710;2023-02-25T08:59:04;95825.13;;;14.65;43.26
44001;BME280;29660;42.892;24.710;2023-02-25T09:04:27;95695.41;;;13.89;44.72
44001;BME280;29660;42.892;24.710;2023-02-25T09:09:49;95926.38;;;15.49;46.13
44001;BME280;29660;42.892;24.710;2023-02-25T09:15:12;95529.91;;;13.01;43.55
44001;BME280;29660;42.892;24.710;2023-02-25T09:20:34;95909.59;;;15.67;42.83
44001;BME280;29660;42.892;24.710;2023-02-25T09:26:02;95902.56;;;15.79;41.91
44001;BME280;29660;42.892;24.710;2023-02-25T09:31:24;95856.84;;;15.63;41.27
44001;BME280;29660;42.892;24.710;2023-02-25T09:36:47;95822.78;;;15.51;41.17
44001;BME280;29660;42.892;24.710;2023-02-25T09:42:15;95694.03;;;14.79;40.74
44001;BME280;29660;42.892;24.710;2023-02-25T09:47:51;95834.03;;;16.04;39.74
44001;BME280;29660;42.892;24.710;2023-02-25T09:53:21;95852.63;;;16.29;40.05
44001;BME280;29660;42.892;24.710;2023-02-25T09:58:56;95856.22;;;16.52;38.88
44001;BME280;29660;42.892;24.710;2023-02-25T10:04:30;95638.16;;;15.16;38.65
44001;BME280;29660;42.892;24.710;2023-02-25T10:26:32;95758.41;;;16.25;39.26
44001;BME280;29660;42.892;24.710;2023-02-25T10:32:14;95579.63;;;15.06;37.17
44001;BME280;29660;42.892;24.710;2023-02-25T10:37:36;95541.31;;;14.90;37.55
44001;BME280;29660;42.892;24.710;2023-02-25T10:43:02;95656.81;;;15.80;38.55
44001;BME280;29660;42.892;24.710;2023-02-25T10:48:31;95587.81;;;15.49;39.99
44001;BME280;29660;42.892;24.710;2023-02-25T10:59:30;95793.81;;;16.66;40.18
44001;BME280;29660;42.892;24.710;2023-02-25T11:04:56;95532.97;;;14.95;39.62
44001;BME280;29660;42.892;24.710;2023-02-25T11:10:21;95765.00;;;16.47;39.90
44001;BME280;29660;42.892;24.710;2023-02-25T11:15:44;95727.97;;;16.21;40.66
44001;BME280;29660;42.892;24.710;2023-02-25T11:21:11;95765.34;;;16.26;41.51
44001;BME280;29660;42.892;24.710;2023-02-25T11:26:35;95758.56;;;16.32;41.38
44001;BME280;29660;42.892;24.710;2023-02-25T11:32:12;95615.06;;;15.31;41.69
44001;BME280;29660;42.892;24.710;2023-02-25T11:37:41;95753.72;;;16.22;41.86
44001;BME280;29660;42.892;24.710;2023-02-25T11:48:49;95544.34;;;14.57;42.01
44001;BME280;29660;42.892;24.710;2023-02-25T12:05:55;95788.81;;;16.10;43.11
44001;BME280;29660;42.892;24.710;2023-02-25T12:23:29;95774.09;;;16.04;42.72
44001;BME280;29660;42.892;24.710;2023-02-25T12:29:40;95768.81;;;16.07;43.05
44001;BME280;29660;42.892;24.710;2023-02-25T12:35:19;95766.16;;;16.11;43.63
44001;BME280;29660;42.892;24.710;2023-02-25T12:41:07;95514.44;;;14.55;43.29
44001;BME280;29660;42.892;24.710;2023-02-25T13:04:29;95302.91;;;13.35;43.02
44001;BME280;29660;42.892;24.710;2023-02-25T13:21:24;95684.06;;;15.98;42.28
44001;BME280;29660;42.892;24.710;2023-02-25T14:07:09;95637.72;;;15.65;42.41
44001;BME280;29660;42.892;24.710;2023-02-25T14:18:19;95593.03;;;15.41;41.85
44001;BME280;29660;42.892;24.710;2023-02-25T14:46:58;95671.19;;;15.68;41.88
44001;BME280;29660;42.892;24.710;2023-02-25T14:58:20;95694.31;;;15.73;42.42
44001;BME280;29660;42.892;24.710;2023-02-25T15:09:45;95715.81;;;15.57;43.75
44001;BME280;29660;42.892;24.710;2023-02-25T15:20:56;95482.47;;;13.86;43.23
44001;BME280;29660;42.892;24.710;2023-02-25T15:26:42;95751.88;;;15.40;42.61
44001;BME280;29660;42.892;24.710;2023-02-25T15:32:22;95726.84;;;15.36;42.71
44001;BME280;29660;42.892;24.710;2023-02-25T15:48:36;95719.75;;;15.12;42.44
44001;BME280;29660;42.892;24.710;2023-02-25T15:53:59;95400.25;;;13.15;41.99
44001;BME280;29660;42.892;24.710;2023-02-25T16:10:43;95730.75;;;15.22;42.39
44001;BME280;29660;42.892;24.710;2023-02-25T16:16:09;95733.09;;;15.24;42.28
44001;BME280;29660;42.892;24.710;2023-02-25T16:21:45;95707.53;;;15.14;42.33
44001;BME280;29660;42.892;24.710;2023-02-25T16:27:33;95792.88;;;15.53;42.14
44001;BME280;29660;42.892;24.710;2023-02-25T16:33:17;95514.41;;;13.91;42.47
44001;BME280;29660;42.892;24.710;2023-02-25T16:39:03;95766.97;;;15.44;42.73
44001;BME280;29660;42.892;24.710;2023-02-25T16:44:33;95764.97;;;15.41;42.59
44001;BME280;29660;42.892;24.710;2023-02-25T16:50:02;95767.91;;;15.36;42.79
44001;BME280;29660;42.892;24.710;2023-02-25T16:55:28;95779.78;;;15.35;42.82
44001;BME280;29660;42.892;24.710;2023-02-25T17:00:58;95758.13;;;15.12;42.57
44001;BME280;29660;42.892;24.710;2023-02-25T17:06:20;95548.56;;;13.66;42.56
44001;BME280;29660;42.892;24.710;2023-02-25T17:11:52;95524.34;;;13.35;43.64
44001;BME280;29660;42.892;24.710;2023-02-25T17:17:23;95763.03;;;14.79;43.61
44001;BME280;29660;42.892;24.710;2023-02-25T17:22:46;95814.50;;;14.96;43.78
44001;BME280;29660;42.892;24.710;2023-02-25T17:28:18;95538.81;;;13.06;43.70
44001;BME280;29660;42.892;24.710;2023-02-25T17:34:02;95611.72;;;13.67;43.23
44001;BME280;29660;42.892;24.710;2023-02-25T17:39:25;95745.84;;;14.52;43.96
44001;BME280;29660;42.892;24.710;2023-02-25T17:44:50;95732.78;;;14.38;43.73
44001;BME280;29660;42.892;24.710;2023-02-25T17:50:24;95626.59;;;13.65;43.89
44001;BME280;29660;42.892;24.710;2023-02-25T17:55:49;95708.16;;;14.20;44.06
44001;BME280;29660;42.892;24.710;2023-02-25T18:01:28;95753.53;;;14.53;44.13
44001;BME280;29660;42.892;24.710;2023-02-25T18:06:52;95784.78;;;14.61;44.59
44001;BME280;29660;42.892;24.710;2023-02-25T18:12:23;95499.59;;;12.73;44.79
44001;BME280;29660;42.892;24.710;2023-02-25T18:17:49;95799.50;;;14.52;45.33
44001;BME280;29660;42.892;24.710;2023-02-25T18:28:34;95795.00;;;14.43;45.90
44001;BME280;29660;42.892;24.710;2023-02-25T18:33:57;95721.53;;;13.92;46.46
44001;BME280;29660;42.892;24.710;2023-02-25T18:39:20;95781.41;;;14.36;46.74
44001;BME280;29660;42.892;24.710;2023-02-25T18:44:44;95804.19;;;14.30;47.13
44001;BME280;29660;42.892;24.710;2023-02-25T18:50:07;95716.78;;;13.73;47.44
44001;BME280;29660;42.892;24.710;2023-02-25T18:55:31;95728.13;;;13.82;47.28
44001;BME280;29660;42.892;24.710;2023-02-25T19:00:56;95355.06;;;11.43;47.62
44001;BME280;29660;42.892;24.710;2023-02-25T19:06:18;95783.03;;;14.13;48.09
44001;BME280;29660;42.892;24.710;2023-02-25T19:11:40;95489.72;;;12.24;47.95
44001;BME280;29660;42.892;24.710;2023-02-25T19:17:02;95786.50;;;14.13;48.01
44001;BME280;29660;42.892;24.710;2023-02-25T19:22:25;95574.06;;;12.71;48.15
44001;BME280;29660;42.892;24.710;2023-02-25T19:27:48;95558.91;;;12.50;48.43
44001;BME280;29660;42.892;24.710;2023-02-25T19:33:11;95798.22;;;14.09;48.66
44001;BME280;29660;42.892;24.710;2023-02-25T19:38:34;95750.94;;;13.76;48.56
44001;BME280;29660;42.892;24.710;2023-02-25T19:43:57;95565.47;;;12.53;48.73
44001;BME280;29660;42.892;24.710;2023-02-25T19:49:19;95504.97;;;12.24;48.43
44001;BME280;29660;42.892;24.710;2023-02-25T19:54:41;95563.59;;;12.66;48.20
44001;BME280;29660;42.892;24.710;2023-02-25T20:00:04;95532.06;;;12.35;48.30
44001;BME280;29660;42.892;24.710;2023-02-25T20:05:33;95788.66;;;13.95;48.69
44001;BME280;29660;42.892;24.710;2023-02-25T20:10:55;95707.88;;;13.57;48.46
44001;BME280;29660;42.892;24.710;2023-02-25T20:16:17;95752.50;;;13.77;48.47
44001;BME280;29660;42.892;24.710;2023-02-25T20:21:42;95558.81;;;12.59;48.66
44001;BME280;29660;42.892;24.710;2023-02-25T20:27:04;95767.41;;;14.03;48.69
44001;BME280;29660;42.892;24.710;2023-02-25T20:32:26;95606.28;;;12.99;48.84
44001;BME280;29660;42.892;24.710;2023-02-25T20:38:13;95790.06;;;14.17;49.05
44001;BME280;29660;42.892;24.710;2023-02-25T20:43:37;95528.16;;;12.57;49.12
44001;BME280;29660;42.892;24.710;2023-02-25T20:48:59;95787.72;;;14.16;49.21
44001;BME280;29660;42.892;24.710;2023-02-25T20:54:22;95687.88;;;13.66;49.47
44001;BME280;29660;42.892;24.710;2023-02-25T20:59:46;95494.50;;;12.43;49.24
44001;BME280;29660;42.892;24.710;2023-02-25T21:05:09;95577.69;;;13.15;49.35
44001;BME280;29660;42.892;24.710;2023-02-25T21:10:31;95508.63;;;12.68;49.22
44001;BME280;29660;42.892;24.710;2023-02-25T21:16:00;95736.31;;;14.14;49.49
44001;BME280;29660;42.892;24.710;2023-02-25T21:21:23;95566.25;;;13.02;49.55
44001;BME280;29660;42.892;24.710;2023-02-25T21:26:47;95625.06;;;13.51;49.56
44001;BME280;29660;42.892;24.710;2023-02-25T21:32:12;95491.69;;;12.64;49.95
44001;BME280;29660;42.892;24.710;2023-02-25T21:37:35;95437.72;;;12.34;49.58
44001;BME280;29660;42.892;24.710;2023-02-25T21:42:57;95564.00;;;13.17;50.13
44001;BME280;29660;42.892;24.710;2023-02-25T21:48:22;95477.78;;;12.59;49.95
44001;BME280;29660;42.892;24.710;2023-02-25T21:53:44;95726.69;;;14.25;49.80
44001;BME280;29660;42.892;24.710;2023-02-25T21:59:07;95478.13;;;12.69;49.53
44001;BME280;29660;42.892;24.710;2023-02-25T22:04:29;95670.06;;;13.86;49.83
44001;BME280;29660;42.892;24.710;2023-02-25T22:10:10;95656.34;;;13.88;49.66
44001;BME280;29660;42.892;24.710;2023-02-25T22:15:32;95709.72;;;14.21;49.44
44001;BME280;29660;42.892;24.710;2023-02-25T22:21:10;95662.69;;;13.83;49.68
44001;BME280;29660;42.892;24.710;2023-02-25T22:26:34;95640.44;;;13.67;49.86
44001;BME280;29660;42.892;24.710;2023-02-25T22:31:57;95531.38;;;12.87;50.15
44001;BME280;29660;42.892;24.710;2023-02-25T22:37:19;95484.47;;;12.52;49.95
44001;BME280;29660;42.892;24.710;2023-02-25T22:42:59;95449.50;;;12.33;49.40
44001;BME280;29660;42.892;24.710;2023-02-25T22:48:22;95493.38;;;12.57;49.97
44001;BME280;29660;42.892;24.710;2023-02-25T22:53:44;95464.88;;;12.36;49.97
44001;BME280;29660;42.892;24.710;2023-02-25T22:59:06;95739.00;;;14.14;49.96
44001;BME280;29660;42.892;24.710;2023-02-25T23:04:28;95487.16;;;12.28;50.27
44001;BME280;29660;42.892;24.710;2023-02-25T23:09:50;95733.59;;;13.86;50.34
44001;BME280;29660;42.892;24.710;2023-02-25T23:15:12;95742.19;;;14.04;50.09
44001;BME280;29660;42.892;24.710;2023-02-25T23:20:38;95715.41;;;13.79;50.06
44001;BME280;29660;42.892;24.710;2023-02-25T23:26:00;95761.97;;;13.99;49.72
44001;BME280;29660;42.892;24.710;2023-02-25T23:31:29;95764.28;;;14.00;49.71
44001;BME280;29660;42.892;24.710;2023-02-25T23:36:54;95537.84;;;12.49;49.53
44001;BME280;29660;42.892;24.710;2023-02-25T23:42:17;95554.78;;;12.53;48.99
44001;BME280;29660;42.892;24.710;2023-02-25T23:47:39;95754.25;;;13.97;49.21
44001;BME280;29660;42.892;24.710;2023-02-25T23:53:03;95777.06;;;13.91;49.25
44001;BME280;29660;42.892;24.710;2023-02-25T23:58:25;95554.22;;;12.35;49.53
